Terminal Aerodrome Forecast
Issued by NWS

Current Version | Previous Version | Graphics & Text | Print | Product List | Glossary On
Versions: 1 2 3 4 5 6 7 8 9 10 11 12 13 14 15 16 17 18
000
FTUS41 KILN 151747
TAFLCK
TAF
KLCK 151747Z 1518/1618 27004KT P6SM BKN035
     FM160100 VRB03KT P6SM FEW210
     FM160700 00000KT 5SM BR FEW200
     FM161000 00000KT 1SM BR SCT080
     FM161400 VRB03KT P6SM BKN050=

USA.gov is the U.S. government's official web portal to all federal, state and local government web resources and services.